Capitol Logistics 718




MROC
Juan Santamar?a International Airport
San Jose, CR
KMIA
Miami International Airport
Miami, US

Activity Log

Date Flight Route Aircraft Duration
08/28/2020 CPX618 UCA UA301 URSUS FLIPR6 B763 2h 41m
06/21/2019 CPX718 UCA UA301 URSUS FLIPR6 B763 2h 37m

Route Details

Aircraft Information
Group: Boeing 767
Types: B762,B763
Route Data
Demand: M
Distance: 976nm
Duration: 2h 29m
Recm'd Route: UCA UA301 URSUS FLIPR6
Origin Wx: MROC 270600Z 04002KT 8000 BCFG SCT004 BKN010 21/21 A3010 NOSIG
Dest. Wx: KMIA 270553Z 11011KT 10SM FEW019 SCT050 SCT080 26/23 A3004 RMK AO2 SLP172 T02610228 10272 20261 58008 $
Notes:

Financial History
Total Freight: 165,872lbs
Average Load: 82,936lbs/flt
Fuel Used: 46,204lbs
Avg. Fuel Used: 23,102lbs/flt
Fuel Expense: $28,646
Avg. Fuel Expense: $14,323
Avg. Fuel Cost: $0.62/lbs
Total Gross Income: $315,575
Pilot Pay: $388
Total Expenses: $34,186
Total Revenue: $251,468
Average Revenue: $157,787.50